createdAt,value
2023-03-26T00:10:00.307Z,7.7
2023-03-26T00:20:02.799Z,7.8
2023-03-26T00:30:04.657Z,7.8
2023-03-26T00:40:06.418Z,7.8
2023-03-26T00:50:08.146Z,7.8
2023-03-26T01:00:10.026Z,7.8
2023-03-26T01:10:11.933Z,7.8
2023-03-26T01:30:16.537Z,7.8
2023-03-26T01:40:18.437Z,7.9
2023-03-26T01:50:20.551Z,7.9
2023-03-26T02:00:23.008Z,8
2023-03-26T02:10:25.701Z,8
2023-03-26T02:20:27.641Z,7.9
2023-03-26T02:30:30.110Z,7.8
2023-03-26T02:40:31.723Z,7.8
2023-03-26T02:50:33.812Z,7.8
2023-03-26T03:50:45.669Z,7.6
2023-03-26T06:21:17.718Z,7.5
2023-03-26T06:41:21.497Z,7.5
2023-03-26T07:01:26.002Z,7.5
2023-03-26T07:21:29.606Z,7.6
2023-03-26T07:41:33.172Z,7.7
2023-03-26T08:01:37.528Z,7.7
2023-03-26T08:51:48.446Z,8.1
2023-03-26T09:11:53.619Z,8
2023-03-26T09:31:58.152Z,8
2023-03-26T09:42:00.163Z,8
2023-03-26T09:52:02.247Z,8
2023-03-26T10:12:07.273Z,8
2023-03-26T11:22:22.124Z,8.1
2023-03-26T11:42:26.715Z,8.3
2023-03-26T11:52:29.025Z,8.4
2023-03-26T12:02:31.318Z,8.4
2023-03-26T12:22:35.074Z,8.3
2023-03-26T12:32:45.560Z,8.4
2023-03-26T12:52:41.415Z,8.5
2023-03-26T13:22:48.676Z,8.7
2023-03-26T13:32:50.762Z,8.9
2023-03-26T13:42:53.178Z,8.5
2023-03-26T13:52:55.569Z,8.4
2023-03-26T14:13:00.287Z,8.3
2023-03-26T14:23:02.875Z,8.3
2023-03-26T14:33:05.398Z,8.4
2023-03-26T14:43:07.652Z,8.1
2023-03-26T14:53:09.585Z,7.9
2023-03-26T15:03:11.667Z,7.7
2023-03-26T15:13:13.839Z,7.5
2023-03-26T15:23:15.750Z,7.4
2023-03-26T15:33:18.333Z,7.3
2023-03-26T15:43:20.365Z,7.3
2023-03-26T15:53:22.811Z,7.3
2023-03-26T16:03:25.256Z,7.4
2023-03-26T16:13:26.966Z,7.4
2023-03-26T16:43:34.296Z,7.4
2023-03-26T17:03:38.574Z,7.4
2023-03-26T17:13:40.890Z,7.3
2023-03-26T17:16:35.491Z,7.3
2023-03-26T17:23:52.853Z,7.3
2023-03-26T17:33:55.224Z,7.2
2023-03-26T17:43:57.163Z,7
2023-03-26T17:53:59.724Z,6.9
2023-03-26T18:04:01.346Z,6.8
2023-03-26T18:14:04.007Z,6.7
2023-03-26T18:24:06.396Z,6.6
2023-03-26T18:34:08.986Z,6.6
2023-03-26T18:44:11.449Z,6.6
2023-03-26T19:04:15.216Z,6.4
2023-03-26T19:14:17.276Z,6.4
2023-03-26T19:24:19.692Z,6.3
2023-03-26T19:34:21.409Z,6.3
2023-03-26T19:54:26.407Z,5.9
2023-03-26T20:04:28.503Z,5.7
2023-03-26T20:14:30.881Z,5.6
2023-03-26T20:44:37.585Z,5
2023-03-26T20:54:39.462Z,4.7
2023-03-26T21:04:41.779Z,4.5
2023-03-26T21:14:43.511Z,4.2
2023-03-26T21:24:45.744Z,4.1
2023-03-26T21:34:58.399Z,4
2023-03-26T21:44:50.165Z,3.9
2023-03-26T21:54:52.591Z,3.8
2023-03-26T22:04:54.528Z,3.6
2023-03-26T22:14:56.527Z,3.4
2023-03-26T22:24:58.858Z,3.3
2023-03-26T22:35:00.886Z,3.2
2023-03-26T22:45:03.026Z,3.1
2023-03-26T22:55:04.791Z,3.1
2023-03-26T23:05:06.541Z,3
2023-03-26T23:15:08.671Z,3
2023-03-26T23:25:11.082Z,3
2023-03-26T23:35:13.288Z,2.9
2023-03-26T23:45:15.373Z,2.8
2023-03-26T23:55:17.027Z,2.8
